sensor_id;sensor_type;location;lat;lon;timestamp;pressure;altitude;pressure_sealevel;temperature;humidity
53550;BME280;67273;52.914;-0.982;2023-02-19T00:01:20;101678.50;;;17.04;47.26
53550;BME280;67273;52.914;-0.982;2023-02-19T00:03:48;101680.53;;;17.02;47.49
53550;BME280;67273;52.914;-0.982;2023-02-19T00:06:14;101681.41;;;17.02;47.28
53550;BME280;67273;52.914;-0.982;2023-02-19T00:08:40;101683.25;;;17.02;47.46
53550;BME280;67273;52.914;-0.982;2023-02-19T00:11:12;101687.03;;;17.01;47.49
53550;BME280;67273;52.914;-0.982;2023-02-19T00:13:40;101688.06;;;17.00;47.62
53550;BME280;67273;52.914;-0.982;2023-02-19T00:16:07;101691.84;;;16.99;47.41
53550;BME280;67273;52.914;-0.982;2023-02-19T00:18:33;101688.25;;;16.98;47.40
53550;BME280;67273;52.914;-0.982;2023-02-19T00:20:59;101695.56;;;16.98;47.66
53550;BME280;67273;52.914;-0.982;2023-02-19T00:23:25;101702.69;;;16.99;47.56
53550;BME280;67273;52.914;-0.982;2023-02-19T00:25:52;101703.72;;;16.98;47.41
53550;BME280;67273;52.914;-0.982;2023-02-19T00:28:19;101701.00;;;16.98;47.59
53550;BME280;67273;52.914;-0.982;2023-02-19T00:30:45;101705.59;;;16.97;47.57
53550;BME280;67273;52.914;-0.982;2023-02-19T00:33:11;101713.94;;;16.96;47.55
53550;BME280;67273;52.914;-0.982;2023-02-19T00:35:37;101700.38;;;16.96;47.45
53550;BME280;67273;52.914;-0.982;2023-02-19T00:38:03;101708.91;;;16.92;47.69
53550;BME280;67273;52.914;-0.982;2023-02-19T00:40:29;101699.75;;;16.94;47.44
53550;BME280;67273;52.914;-0.982;2023-02-19T00:42:55;101703.50;;;16.92;47.69
53550;BME280;67273;52.914;-0.982;2023-02-19T00:45:23;101706.19;;;16.92;47.50
53550;BME280;67273;52.914;-0.982;2023-02-19T00:47:48;101713.53;;;16.92;47.52
53550;BME280;67273;52.914;-0.982;2023-02-19T00:50:14;101712.69;;;16.91;47.35
53550;BME280;67273;52.914;-0.982;2023-02-19T00:52:42;101716.44;;;16.90;47.64
53550;BME280;67273;52.914;-0.982;2023-02-19T00:55:07;101716.44;;;16.90;47.71
53550;BME280;67273;52.914;-0.982;2023-02-19T00:57:33;101721.84;;;16.90;47.47
53550;BME280;67273;52.914;-0.982;2023-02-19T00:59:59;101733.78;;;16.89;47.74
53550;BME280;67273;52.914;-0.982;2023-02-19T01:02:26;101735.63;;;16.89;47.54
53550;BME280;67273;52.914;-0.982;2023-02-19T01:04:52;101730.19;;;16.89;47.52
53550;BME280;67273;52.914;-0.982;2023-02-19T01:07:18;101736.50;;;16.89;47.70
53550;BME280;67273;52.914;-0.982;2023-02-19T01:09:44;101726.66;;;16.88;47.47
53550;BME280;67273;52.914;-0.982;2023-02-19T01:12:10;101732.91;;;16.89;47.42
53550;BME280;67273;52.914;-0.982;2023-02-19T01:14:38;101734.81;;;16.88;47.67
53550;BME280;67273;52.914;-0.982;2023-02-19T01:17:03;101736.69;;;16.88;47.68
53550;BME280;67273;52.914;-0.982;2023-02-19T01:19:30;101737.72;;;16.87;47.84
53550;BME280;67273;52.914;-0.982;2023-02-19T01:21:56;101737.72;;;16.87;47.67
53550;BME280;67273;52.914;-0.982;2023-02-19T01:24:22;101735.19;;;16.85;47.56
53550;BME280;67273;52.914;-0.982;2023-02-19T01:26:48;101743.34;;;16.85;47.66
53550;BME280;67273;52.914;-0.982;2023-02-19T01:29:13;101742.31;;;16.86;47.70
53550;BME280;67273;52.914;-0.982;2023-02-19T01:31:39;101740.63;;;16.85;47.81
53550;BME280;67273;52.914;-0.982;2023-02-19T01:34:08;101738.97;;;16.84;47.68
53550;BME280;67273;52.914;-0.982;2023-02-19T01:36:36;101748.13;;;16.83;47.86
53550;BME280;67273;52.914;-0.982;2023-02-19T01:39:04;101749.81;;;16.84;47.64
53550;BME280;67273;52.914;-0.982;2023-02-19T01:41:31;101742.69;;;16.83;47.67
53550;BME280;67273;52.914;-0.982;2023-02-19T01:44:00;101750.84;;;16.83;47.89
53550;BME280;67273;52.914;-0.982;2023-02-19T01:46:26;101764.41;;;16.83;47.61
53550;BME280;67273;52.914;-0.982;2023-02-19T01:48:53;101765.41;;;16.82;47.83
53550;BME280;67273;52.914;-0.982;2023-02-19T01:51:21;101766.47;;;16.81;47.96
53550;BME280;67273;52.914;-0.982;2023-02-19T01:53:51;101778.16;;;16.82;47.59
53550;BME280;67273;52.914;-0.982;2023-02-19T01:56:19;101777.31;;;16.81;47.56
53550;BME280;67273;52.914;-0.982;2023-02-19T01:58:46;101777.31;;;16.81;47.85
53550;BME280;67273;52.914;-0.982;2023-02-19T02:01:12;101785.47;;;16.81;47.59
53550;BME280;67273;52.914;-0.982;2023-02-19T02:03:39;101775.44;;;16.82;47.84
53550;BME280;67273;52.914;-0.982;2023-02-19T02:06:10;101781.06;;;16.80;47.76
53550;BME280;67273;52.914;-0.982;2023-02-19T02:08:39;101792.97;;;16.79;47.57
53550;BME280;67273;52.914;-0.982;2023-02-19T02:11:25;101795.69;;;16.79;47.71
53550;BME280;67273;52.914;-0.982;2023-02-19T02:13:53;101798.41;;;16.79;47.60
53550;BME280;67273;52.914;-0.982;2023-02-19T02:16:22;101792.13;;;16.79;47.72
53550;BME280;67273;52.914;-0.982;2023-02-19T02:18:54;101805.91;;;16.77;47.55
53550;BME280;67273;52.914;-0.982;2023-02-19T02:21:35;101803.19;;;16.77;47.81
53550;BME280;67273;52.914;-0.982;2023-02-19T02:24:23;101803.19;;;16.77;47.54
53550;BME280;67273;52.914;-0.982;2023-02-19T02:27:07;101806.94;;;16.76;47.84
53550;BME280;67273;52.914;-0.982;2023-02-19T02:32:37;101799.81;;;16.75;47.56
53550;BME280;67273;52.914;-0.982;2023-02-19T02:35:08;101805.25;;;16.75;47.75
53550;BME280;67273;52.914;-0.982;2023-02-19T02:37:37;101801.91;;;16.73;47.82
53550;BME280;67273;52.914;-0.982;2023-02-19T02:40:06;101807.31;;;16.73;47.54
53550;BME280;67273;52.914;-0.982;2023-02-19T02:42:33;101801.91;;;16.73;47.83
53550;BME280;67273;52.914;-0.982;2023-02-19T02:45:27;101817.34;;;16.72;47.54
53550;BME280;67273;52.914;-0.982;2023-02-19T02:48:29;101822.78;;;16.72;47.77
53550;BME280;67273;52.914;-0.982;2023-02-19T02:50:59;101824.84;;;16.70;47.82
53550;BME280;67273;52.914;-0.982;2023-02-19T02:53:35;101837.38;;;16.71;47.80
53550;BME280;67273;52.914;-0.982;2023-02-19T02:56:24;101825.69;;;16.71;47.51
53550;BME280;67273;52.914;-0.982;2023-02-19T02:58:51;101822.97;;;16.71;47.82
53550;BME280;67273;52.914;-0.982;2023-02-19T03:01:23;101821.50;;;16.68;47.46
53550;BME280;67273;52.914;-0.982;2023-02-19T03:04:11;101822.31;;;16.69;47.55
53550;BME280;67273;52.914;-0.982;2023-02-19T03:06:41;101826.06;;;16.68;47.45
53550;BME280;67273;52.914;-0.982;2023-02-19T03:09:12;101842.34;;;16.68;47.71
53550;BME280;67273;52.914;-0.982;2023-02-19T03:11:45;101843.22;;;16.68;47.57
53550;BME280;67273;52.914;-0.982;2023-02-19T03:14:36;101852.38;;;16.67;47.41
53550;BME280;67273;52.914;-0.982;2023-02-19T03:17:30;101869.72;;;16.66;47.74
53550;BME280;67273;52.914;-0.982;2023-02-19T03:20:20;101876.16;;;16.65;47.55
53550;BME280;67273;52.914;-0.982;2023-02-19T03:22:49;101879.88;;;16.64;47.60
53550;BME280;67273;52.914;-0.982;2023-02-19T03:25:24;101888.03;;;16.64;47.36
53550;BME280;67273;52.914;-0.982;2023-02-19T03:28:15;101902.84;;;16.62;47.50
53550;BME280;67273;52.914;-0.982;2023-02-19T03:30:49;101890.31;;;16.61;47.59
53550;BME280;67273;52.914;-0.982;2023-02-19T03:33:22;101900.31;;;16.60;47.32
53550;BME280;67273;52.914;-0.982;2023-02-19T03:35:55;101915.78;;;16.60;47.38
53550;BME280;67273;52.914;-0.982;2023-02-19T03:38:26;101910.34;;;16.60;47.47
53550;BME280;67273;52.914;-0.982;2023-02-19T03:40:57;101907.00;;;16.58;47.33
53550;BME280;67273;52.914;-0.982;2023-02-19T03:43:33;101914.28;;;16.57;47.58
53550;BME280;67273;52.914;-0.982;2023-02-19T03:46:07;101906.31;;;16.56;47.34
53550;BME280;67273;52.914;-0.982;2023-02-19T03:48:35;101922.59;;;16.56;47.24
53550;BME280;67273;52.914;-0.982;2023-02-19T03:51:16;101923.66;;;16.54;47.09
53550;BME280;67273;52.914;-0.982;2023-02-19T03:53:51;101926.56;;;16.53;46.98
53550;BME280;67273;52.914;-0.982;2023-02-19T03:56:25;101941.81;;;16.54;47.16
53550;BME280;67273;52.914;-0.982;2023-02-19T03:58:57;101946.38;;;16.53;47.25
53550;BME280;67273;52.914;-0.982;2023-02-19T04:01:29;101945.72;;;16.51;47.07
53550;BME280;67273;52.914;-0.982;2023-02-19T04:04:02;101945.72;;;16.51;47.08
53550;BME280;67273;52.914;-0.982;2023-02-19T04:06:31;101949.50;;;16.50;46.86
53550;BME280;67273;52.914;-0.982;2023-02-19T04:08:59;101951.53;;;16.48;46.91
53550;BME280;67273;52.914;-0.982;2023-02-19T04:11:28;101956.97;;;16.48;47.21
53550;BME280;67273;52.914;-0.982;2023-02-19T04:14:03;101955.31;;;16.47;47.00
53550;BME280;67273;52.914;-0.982;2023-02-19T04:16:32;101965.31;;;16.47;46.75
53550;BME280;67273;52.914;-0.982;2023-02-19T04:19:04;101978.03;;;16.46;46.91
53550;BME280;67273;52.914;-0.982;2023-02-19T04:21:32;101980.72;;;16.46;46.63
53550;BME280;67273;52.914;-0.982;2023-02-19T04:24:02;101998.06;;;16.45;47.18
53550;BME280;67273;52.914;-0.982;2023-02-19T04:26:31;102005.34;;;16.45;47.16
53550;BME280;67273;52.914;-0.982;2023-02-19T04:28:58;102009.75;;;16.46;47.04
53550;BME280;67273;52.914;-0.982;2023-02-19T04:31:25;102008.28;;;16.43;46.84
53550;BME280;67273;52.914;-0.982;2023-02-19T04:33:52;101997.41;;;16.43;47.09
53550;BME280;67273;52.914;-0.982;2023-02-19T04:36:19;101999.47;;;16.41;47.01
53550;BME280;67273;52.914;-0.982;2023-02-19T04:38:45;102010.31;;;16.41;46.63
53550;BME280;67273;52.914;-0.982;2023-02-19T04:41:11;102008.66;;;16.40;47.00
53550;BME280;67273;52.914;-0.982;2023-02-19T04:43:36;102019.50;;;16.40;46.58
53550;BME280;67273;52.914;-0.982;2023-02-19T04:46:04;101998.81;;;16.39;47.00
53550;BME280;67273;52.914;-0.982;2023-02-19T04:48:34;102005.28;;;16.38;46.58
53550;BME280;67273;52.914;-0.982;2023-02-19T04:51:04;102021.56;;;16.38;46.89
53550;BME280;67273;52.914;-0.982;2023-02-19T04:53:31;102041.56;;;16.37;47.01
53550;BME280;67273;52.914;-0.982;2023-02-19T04:55:57;102055.13;;;16.37;47.00
53550;BME280;67273;52.914;-0.982;2023-02-19T04:58:30;102079.53;;;16.37;46.70
53550;BME280;67273;52.914;-0.982;2023-02-19T05:00:55;102077.66;;;16.38;46.59
53550;BME280;67273;52.914;-0.982;2023-02-19T05:03:21;102090.38;;;16.37;46.45
53550;BME280;67273;52.914;-0.982;2023-02-19T05:05:47;102083.25;;;16.36;46.84
53550;BME280;67273;52.914;-0.982;2023-02-19T05:08:12;102080.78;;;16.34;46.80
53550;BME280;67273;52.914;-0.982;2023-02-19T05:10:40;102060.94;;;16.34;46.85
53550;BME280;67273;52.914;-0.982;2023-02-19T05:13:06;102076.56;;;16.32;46.91
53550;BME280;67273;52.914;-0.982;2023-02-19T05:15:31;102069.25;;;16.32;46.56
53550;BME280;67273;52.914;-0.982;2023-02-19T05:17:57;102083.84;;;16.31;46.49
53550;BME280;67273;52.914;-0.982;2023-02-19T05:20:23;102081.31;;;16.30;46.48
53550;BME280;67273;52.914;-0.982;2023-02-19T05:22:49;102094.06;;;16.29;46.49
53550;BME280;67273;52.914;-0.982;2023-02-19T05:25:15;102096.78;;;16.29;46.43
53550;BME280;67273;52.914;-0.982;2023-02-19T05:27:42;102093.41;;;16.27;46.65
53550;BME280;67273;52.914;-0.982;2023-02-19T05:30:09;102086.09;;;16.28;46.57
53550;BME280;67273;52.914;-0.982;2023-02-19T05:32:35;102088.16;;;16.26;46.70
53550;BME280;67273;52.914;-0.982;2023-02-19T05:35:01;102098.16;;;16.25;46.33
53550;BME280;67273;52.914;-0.982;2023-02-19T05:37:27;102093.59;;;16.26;46.58
53550;BME280;67273;52.914;-0.982;2023-02-19T05:39:52;102097.31;;;16.25;46.33
53550;BME280;67273;52.914;-0.982;2023-02-19T05:42:18;102092.94;;;16.24;46.30
53550;BME280;67273;52.914;-0.982;2023-02-19T05:44:45;102105.63;;;16.23;46.45
53550;BME280;67273;52.914;-0.982;2023-02-19T05:47:11;102114.63;;;16.24;46.57
53550;BME280;67273;52.914;-0.982;2023-02-19T05:49:37;102113.97;;;16.22;46.31
53550;BME280;67273;52.914;-0.982;2023-02-19T05:52:03;102114.81;;;16.22;46.43
53550;BME280;67273;52.914;-0.982;2023-02-19T05:54:29;102098.72;;;16.21;46.50
53550;BME280;67273;52.914;-0.982;2023-02-19T05:56:55;102093.31;;;16.21;46.29
53550;BME280;67273;52.914;-0.982;2023-02-19T05:59:23;102095.38;;;16.19;46.19
53550;BME280;67273;52.914;-0.982;2023-02-19T06:01:52;102107.06;;;16.19;46.28
53550;BME280;67273;52.914;-0.982;2023-02-19T06:04:18;102108.06;;;16.18;46.18
53550;BME280;67273;52.914;-0.982;2023-02-19T06:06:45;102108.94;;;16.19;46.42
53550;BME280;67273;52.914;-0.982;2023-02-19T06:09:11;102120.78;;;16.18;46.29
53550;BME280;67273;52.914;-0.982;2023-02-19T06:11:38;102120.97;;;16.16;46.27
53550;BME280;67273;52.914;-0.982;2023-02-19T06:14:04;102129.09;;;16.16;46.17
53550;BME280;67273;52.914;-0.982;2023-02-19T06:16:30;102124.72;;;16.15;46.01
53550;BME280;67273;52.914;-0.982;2023-02-19T06:19:00;102127.63;;;16.13;46.59
53550;BME280;67273;52.914;-0.982;2023-02-19T06:21:27;102127.63;;;16.13;46.12
53550;BME280;67273;52.914;-0.982;2023-02-19T06:23:53;102126.75;;;16.13;46.46
53550;BME280;67273;52.914;-0.982;2023-02-19T06:26:20;102142.19;;;16.12;46.07
53550;BME280;67273;52.914;-0.982;2023-02-19T06:28:47;102147.63;;;16.12;45.92
53550;BME280;67273;52.914;-0.982;2023-02-19T06:31:14;102148.66;;;16.11;45.94
53550;BME280;67273;52.914;-0.982;2023-02-19T06:33:40;102144.25;;;16.10;46.23
53550;BME280;67273;52.914;-0.982;2023-02-19T06:36:10;102155.09;;;16.10;46.16
53550;BME280;67273;52.914;-0.982;2023-02-19T06:38:37;102160.53;;;16.10;46.10
53550;BME280;67273;52.914;-0.982;2023-02-19T06:41:04;102168.66;;;16.10;46.41
53550;BME280;67273;52.914;-0.982;2023-02-19T06:43:30;102162.59;;;16.08;46.29
53550;BME280;67273;52.914;-0.982;2023-02-19T06:45:57;102163.59;;;16.07;46.43
53550;BME280;67273;52.914;-0.982;2023-02-19T06:48:23;102160.06;;;16.07;46.28
53550;BME280;67273;52.914;-0.982;2023-02-19T06:50:49;102153.81;;;16.06;46.10
53550;BME280;67273;52.914;-0.982;2023-02-19T06:53:16;102164.66;;;16.06;45.95
53550;BME280;67273;52.914;-0.982;2023-02-19T06:55:42;102163.78;;;16.06;46.25
53550;BME280;67273;52.914;-0.982;2023-02-19T06:58:07;102175.50;;;16.06;45.81
53550;BME280;67273;52.914;-0.982;2023-02-19T07:00:34;102181.94;;;16.05;46.33
53550;BME280;67273;52.914;-0.982;2023-02-19T07:03:00;102193.81;;;16.04;46.02
53550;BME280;67273;52.914;-0.982;2023-02-19T07:05:26;102206.31;;;16.05;46.20
53550;BME280;67273;52.914;-0.982;2023-02-19T07:07:51;102206.50;;;16.04;45.93
53550;BME280;67273;52.914;-0.982;2023-02-19T07:10:18;102206.69;;;16.02;46.20
53550;BME280;67273;52.914;-0.982;2023-02-19T07:12:44;102198.56;;;16.02;46.10
53550;BME280;67273;52.914;-0.982;2023-02-19T07:15:10;102194.19;;;16.01;46.13
53550;BME280;67273;52.914;-0.982;2023-02-19T07:17:36;102205.03;;;16.01;46.04
53550;BME280;67273;52.914;-0.982;2023-02-19T07:20:01;102241.94;;;16.02;46.10
53550;BME280;67273;52.914;-0.982;2023-02-19T07:22:27;102244.63;;;16.02;46.10
53550;BME280;67273;52.914;-0.982;2023-02-19T07:24:53;102229.41;;;16.01;46.30
53550;BME280;67273;52.914;-0.982;2023-02-19T07:27:20;102214.16;;;16.00;45.98
53550;BME280;67273;52.914;-0.982;2023-02-19T07:29:46;102207.06;;;15.99;46.20
53550;BME280;67273;52.914;-0.982;2023-02-19T07:32:11;102219.59;;;16.00;46.01
53550;BME280;67273;52.914;-0.982;2023-02-19T07:34:37;102213.34;;;16.00;46.16
53550;BME280;67273;52.914;-0.982;2023-02-19T07:37:03;102217.06;;;15.99;45.81
53550;BME280;67273;52.914;-0.982;2023-02-19T07:39:29;102232.50;;;15.98;46.29
53550;BME280;67273;52.914;-0.982;2023-02-19T07:41:54;102227.91;;;15.99;46.13
53550;BME280;67273;52.914;-0.982;2023-02-19T07:44:27;102219.94;;;15.97;46.12
53550;BME280;67273;52.914;-0.982;2023-02-19T07:46:53;102223.69;;;15.96;46.05
53550;BME280;67273;52.914;-0.982;2023-02-19T07:49:18;102215.56;;;15.96;45.99
53550;BME280;67273;52.914;-0.982;2023-02-19T07:51:44;102218.28;;;15.96;45.99
53550;BME280;67273;52.914;-0.982;2023-02-19T07:54:10;102209.31;;;15.95;45.88
53550;BME280;67273;52.914;-0.982;2023-02-19T07:56:36;102200.31;;;15.95;46.24
53550;BME280;67273;52.914;-0.982;2023-02-19T07:59:02;102207.63;;;15.94;45.96
53550;BME280;67273;52.914;-0.982;2023-02-19T08:01:29;102221.16;;;15.94;45.85
53550;BME280;67273;52.914;-0.982;2023-02-19T08:04:14;102231.19;;;15.94;46.09
53550;BME280;67273;52.914;-0.982;2023-02-19T08:06:40;102242.84;;;15.94;46.17
53550;BME280;67273;52.914;-0.982;2023-02-19T08:09:06;102252.00;;;15.93;45.99
53550;BME280;67273;52.914;-0.982;2023-02-19T08:11:32;102253.88;;;15.93;45.86
53550;BME280;67273;52.914;-0.982;2023-02-19T08:14:16;102260.34;;;15.92;46.03
53550;BME280;67273;52.914;-0.982;2023-02-19T08:16:48;102291.00;;;15.92;45.81
53550;BME280;67273;52.914;-0.982;2023-02-19T08:19:14;102288.28;;;15.92;46.12
53550;BME280;67273;52.914;-0.982;2023-02-19T08:21:40;102296.59;;;15.91;45.97
53550;BME280;67273;52.914;-0.982;2023-02-19T08:24:06;102315.56;;;15.91;45.85
53550;BME280;67273;52.914;-0.982;2023-02-19T08:26:32;102320.97;;;15.91;46.32
53550;BME280;67273;52.914;-0.982;2023-02-19T08:28:57;102310.13;;;15.91;46.13
53550;BME280;67273;52.914;-0.982;2023-02-19T08:31:23;102312.84;;;15.91;46.12
53550;BME280;67273;52.914;-0.982;2023-02-19T08:33:50;102320.16;;;15.90;46.15
53550;BME280;67273;52.914;-0.982;2023-02-19T08:36:16;102334.53;;;15.91;46.31
53550;BME280;67273;52.914;-0.982;2023-02-19T08:38:42;102334.53;;;15.91;46.09
53550;BME280;67273;52.914;-0.982;2023-02-19T08:41:09;102328.44;;;15.89;45.96
53550;BME280;67273;52.914;-0.982;2023-02-19T08:43:35;102325.75;;;15.89;46.17
53550;BME280;67273;52.914;-0.982;2023-02-19T08:46:01;102312.19;;;15.89;46.10
53550;BME280;67273;52.914;-0.982;2023-02-19T08:48:27;102309.47;;;15.89;45.91
53550;BME280;67273;52.914;-0.982;2023-02-19T08:50:56;102303.22;;;15.88;46.23
53550;BME280;67273;52.914;-0.982;2023-02-19T08:53:22;102287.97;;;15.87;45.83
53550;BME280;67273;52.914;-0.982;2023-02-19T08:55:48;102299.47;;;15.89;45.77
53550;BME280;67273;52.914;-0.982;2023-02-19T08:58:13;102298.63;;;15.89;45.89
53550;BME280;67273;52.914;-0.982;2023-02-19T09:00:39;102295.09;;;15.88;45.84
53550;BME280;67273;52.914;-0.982;2023-02-19T09:03:05;102307.59;;;15.89;46.10
53550;BME280;67273;52.914;-0.982;2023-02-19T09:05:31;102305.94;;;15.88;45.83
53550;BME280;67273;52.914;-0.982;2023-02-19T09:07:58;102304.06;;;15.89;45.84
53550;BME280;67273;52.914;-0.982;2023-02-19T09:10:23;102295.94;;;15.89;45.79
53550;BME280;67273;52.914;-0.982;2023-02-19T09:12:49;102284.03;;;15.90;45.67
53550;BME280;67273;52.914;-0.982;2023-02-19T09:15:15;102304.06;;;15.89;46.04
53550;BME280;67273;52.914;-0.982;2023-02-19T09:17:41;102317.63;;;15.89;46.16
53550;BME280;67273;52.914;-0.982;2023-02-19T09:20:07;102333.88;;;15.89;46.16
53550;BME280;67273;52.914;-0.982;2023-02-19T09:22:33;102342.00;;;15.89;45.80
53550;BME280;67273;52.914;-0.982;2023-02-19T09:25:00;102353.69;;;15.89;45.77
53550;BME280;67273;52.914;-0.982;2023-02-19T09:27:26;102344.72;;;15.89;45.97
53550;BME280;67273;52.914;-0.982;2023-02-19T09:29:52;102347.44;;;15.89;45.82
53550;BME280;67273;52.914;-0.982;2023-02-19T09:32:19;102351.16;;;15.88;45.58
53550;BME280;67273;52.914;-0.982;2023-02-19T09:34:45;102366.41;;;15.89;46.09
53550;BME280;67273;52.914;-0.982;2023-02-19T09:37:11;102360.97;;;15.89;45.97
53550;BME280;67273;52.914;-0.982;2023-02-19T09:39:37;102363.69;;;15.89;45.52
53550;BME280;67273;52.914;-0.982;2023-02-19T09:42:12;102353.84;;;15.88;46.02
53550;BME280;67273;52.914;-0.982;2023-02-19T09:44:43;102346.78;;;15.87;45.97
53550;BME280;67273;52.914;-0.982;2023-02-19T09:47:15;102363.69;;;15.89;45.83
53550;BME280;67273;52.914;-0.982;2023-02-19T09:49:43;102350.31;;;15.87;45.74
53550;BME280;67273;52.914;-0.982;2023-02-19T09:52:18;102343.19;;;15.86;45.68
53550;BME280;67273;52.914;-0.982;2023-02-19T09:54:47;102371.16;;;15.87;45.66
53550;BME280;67273;52.914;-0.982;2023-02-19T09:57:18;102375.53;;;15.88;45.67
53550;BME280;67273;52.914;-0.982;2023-02-19T09:59:48;102376.59;;;15.87;45.83
53550;BME280;67273;52.914;-0.982;2023-02-19T10:02:16;102358.63;;;15.86;45.90
53550;BME280;67273;52.914;-0.982;2023-02-19T10:04:44;102356.94;;;15.85;45.85
53550;BME280;67273;52.914;-0.982;2023-02-19T10:07:11;102351.53;;;15.85;45.90
53550;BME280;67273;52.914;-0.982;2023-02-19T10:09:37;102344.22;;;15.85;45.92
53550;BME280;67273;52.914;-0.982;2023-02-19T10:12:12;102340.69;;;15.85;45.92
53550;BME280;67273;52.914;-0.982;2023-02-19T10:14:42;102347.94;;;15.84;45.75
53550;BME280;67273;52.914;-0.982;2023-02-19T10:17:19;102339.81;;;15.84;46.03
53550;BME280;67273;52.914;-0.982;2023-02-19T10:19:46;102336.28;;;15.84;45.89
53550;BME280;67273;52.914;-0.982;2023-02-19T10:22:12;102344.41;;;15.84;45.96
53550;BME280;67273;52.914;-0.982;2023-02-19T10:24:40;102345.25;;;15.84;45.91
53550;BME280;67273;52.914;-0.982;2023-02-19T10:27:11;102345.25;;;15.84;45.83
53550;BME280;67273;52.914;-0.982;2023-02-19T10:29:37;102345.41;;;15.83;45.50
53550;BME280;67273;52.914;-0.982;2023-02-19T10:32:18;102366.94;;;15.84;45.81
53550;BME280;67273;52.914;-0.982;2023-02-19T10:34:46;102356.09;;;15.84;45.87
53550;BME280;67273;52.914;-0.982;2023-02-19T10:37:14;102361.34;;;15.86;45.66
53550;BME280;67273;52.914;-0.982;2023-02-19T10:39:43;102362.38;;;15.85;45.63
53550;BME280;67273;52.914;-0.982;2023-02-19T10:42:17;102373.22;;;15.85;45.56
53550;BME280;67273;52.914;-0.982;2023-02-19T10:44:46;102376.94;;;15.84;45.73
53550;BME280;67273;52.914;-0.982;2023-02-19T10:47:21;102366.09;;;15.84;45.66
53550;BME280;67273;52.914;-0.982;2023-02-19T10:49:49;102366.94;;;15.84;45.59
53550;BME280;67273;52.914;-0.982;2023-02-19T10:52:20;102371.50;;;15.84;45.48
53550;BME280;67273;52.914;-0.982;2023-02-19T10:54:50;102369.63;;;15.84;45.43
53550;BME280;67273;52.914;-0.982;2023-02-19T10:57:26;102366.09;;;15.84;45.80
53550;BME280;67273;52.914;-0.982;2023-02-19T10:59:57;102372.34;;;15.84;45.74
53550;BME280;67273;52.914;-0.982;2023-02-19T11:02:27;102383.19;;;15.84;45.69
53550;BME280;67273;52.914;-0.982;2023-02-19T11:05:16;102374.88;;;15.86;45.83
53550;BME280;67273;52.914;-0.982;2023-02-19T11:07:44;102385.72;;;15.86;45.81
53550;BME280;67273;52.914;-0.982;2023-02-19T11:10:20;102383.00;;;15.86;45.84
53550;BME280;67273;52.914;-0.982;2023-02-19T11:12:48;102369.47;;;15.86;45.48
53550;BME280;67273;52.914;-0.982;2023-02-19T11:15:20;102365.91;;;15.85;45.65
53550;BME280;67273;52.914;-0.982;2023-02-19T11:17:55;102378.44;;;15.86;45.75
53550;BME280;67273;52.914;-0.982;2023-02-19T11:20:22;102374.88;;;15.86;45.75
53550;BME280;67273;52.914;-0.982;2023-02-19T11:22:48;102368.63;;;15.85;46.00
53550;BME280;67273;52.914;-0.982;2023-02-19T11:25:18;102364.03;;;15.86;45.79
53550;BME280;67273;52.914;-0.982;2023-02-19T11:27:53;102359.47;;;15.86;45.48
53550;BME280;67273;52.914;-0.982;2023-02-19T11:30:34;102361.34;;;15.86;45.46
53550;BME280;67273;52.914;-0.982;2023-02-19T11:33:18;102364.03;;;15.86;45.66
53550;BME280;67273;52.914;-0.982;2023-02-19T11:35:45;102369.47;;;15.86;45.83
53550;BME280;67273;52.914;-0.982;2023-02-19T11:38:13;102373.00;;;15.86;45.71
53550;BME280;67273;52.914;-0.982;2023-02-19T11:40:40;102372.00;;;15.87;45.70
53550;BME280;67273;52.914;-0.982;2023-02-19T11:46:04;102364.88;;;15.86;45.48
53550;BME280;67273;52.914;-0.982;2023-02-19T11:48:50;102357.78;;;15.85;45.37
53550;BME280;67273;52.914;-0.982;2023-02-19T11:51:25;102360.31;;;15.87;45.74
53550;BME280;67273;52.914;-0.982;2023-02-19T11:54:05;102351.31;;;15.86;45.80
53550;BME280;67273;52.914;-0.982;2023-02-19T11:56:35;102360.31;;;15.87;45.77
53550;BME280;67273;52.914;-0.982;2023-02-19T11:59:02;102360.31;;;15.87;45.67
53550;BME280;67273;52.914;-0.982;2023-02-19T12:01:58;102360.31;;;15.87;45.42
53550;BME280;67273;52.914;-0.982;2023-02-19T12:07:50;102359.47;;;15.86;45.80
53550;BME280;67273;52.914;-0.982;2023-02-19T12:10:24;102353.19;;;15.86;45.55
53550;BME280;67273;52.914;-0.982;2023-02-19T12:13:01;102357.78;;;15.85;45.24
53550;BME280;67273;52.914;-0.982;2023-02-19T12:16:12;102353.19;;;15.86;45.30
53550;BME280;67273;52.914;-0.982;2023-02-19T12:19:13;102347.78;;;15.86;45.40
53550;BME280;67273;52.914;-0.982;2023-02-19T12:21:54;102356.94;;;15.85;45.31
53550;BME280;67273;52.914;-0.982;2023-02-19T12:24:48;102346.09;;;15.85;45.41
53550;BME280;67273;52.914;-0.982;2023-02-19T12:27:29;102344.41;;;15.84;45.42
53550;BME280;67273;52.914;-0.982;2023-02-19T12:32:51;102332.72;;;15.83;45.46
53550;BME280;67273;52.914;-0.982;2023-02-19T12:35:48;102329.16;;;15.83;45.66
53550;BME280;67273;52.914;-0.982;2023-02-19T12:38:20;102330.19;;;15.82;45.82
53550;BME280;67273;52.914;-0.982;2023-02-19T12:41:02;102308.53;;;15.82;45.70
53550;BME280;67273;52.914;-0.982;2023-02-19T12:43:30;102314.78;;;15.82;45.70
53550;BME280;67273;52.914;-0.982;2023-02-19T12:46:00;102330.19;;;15.82;45.44
53550;BME280;67273;52.914;-0.982;2023-02-19T12:48:32;102313.94;;;15.82;45.64
53550;BME280;67273;52.914;-0.982;2023-02-19T12:51:04;102314.94;;;15.81;45.26
53550;BME280;67273;52.914;-0.982;2023-02-19T12:53:39;102308.53;;;15.82;45.67
53550;BME280;67273;52.914;-0.982;2023-02-19T12:56:11;102300.56;;;15.80;45.75
53550;BME280;67273;52.914;-0.982;2023-02-19T12:58:41;102292.44;;;15.80;45.51
53550;BME280;67273;52.914;-0.982;2023-02-19T13:01:10;102289.72;;;15.80;45.69
53550;BME280;67273;52.914;-0.982;2023-02-19T13:03:39;102294.13;;;15.81;45.47
53550;BME280;67273;52.914;-0.982;2023-02-19T13:06:10;102295.97;;;15.81;45.58